Time;durP1;ratioP1;P1;durP2;ratioP2;P2;SDS_P1;SDS_P2;PMS_P1;PMS_P2;Temp;Humidity;BMP_temperature;BMP_pressure;BME280_temperature;BME280_humidity;BME280_pressure;Samples;Min_cycle;Max_cycle;Signal;HPM_P1;HPM_P2
2023/09/02 00:02:19;;;;;;;32.10;17.75;;;;;;;16.30;100.00;101463.72;6240110;22;20012;-73
2023/09/02 00:04:45;;;;;;;28.55;16.63;;;;;;;16.32;100.00;101458.16;6241067;22;19997;-73
2023/09/02 00:07:10;;;;;;;26.50;17.73;;;;;;;16.33;100.00;101458.03;6239847;22;20029;-72
2023/09/02 00:09:36;;;;;;;25.60;16.85;;;;;;;16.32;100.00;101458.16;6241176;23;19997;-72
2023/09/02 00:12:01;;;;;;;25.52;14.80;;;;;;;16.34;100.00;101459.75;6241032;22;20009;-73
2023/09/02 00:14:26;;;;;;;24.40;14.50;;;;;;;16.31;100.00;101468.16;6240290;22;19988;-73
2023/09/02 00:16:52;;;;;;;27.17;15.48;;;;;;;16.32;100.00;101461.72;6240824;22;20331;-73
2023/09/02 00:19:17;;;;;;;25.55;14.90;;;;;;;16.31;100.00;101464.56;6240019;22;20049;-73
2023/09/02 00:21:42;;;;;;;26.42;15.57;;;;;;;16.30;100.00;101452.88;6213926;23;20000;-73
2023/09/02 00:24:08;;;;;;;27.88;15.55;;;;;;;16.29;100.00;101459.28;6211897;23;20008;-73
2023/09/02 00:26:34;;;;;;;24.88;14.80;;;;;;;16.29;100.00;101462.00;6211268;23;20335;-73
2023/09/02 00:29:00;;;;;;;25.17;16.52;;;;;;;16.29;100.00;101456.56;6211087;23;20001;-73
2023/09/02 00:31:26;;;;;;;29.05;16.02;;;;;;;16.32;100.00;101466.31;6209522;23;20008;-73
2023/09/02 00:33:52;;;;;;;25.45;15.35;;;;;;;16.32;100.00;101467.16;6211367;23;20020;-73
2023/09/02 00:36:17;;;;;;;25.17;15.43;;;;;;;16.35;100.00;101468.75;6210809;23;20008;-73
2023/09/02 00:38:43;;;;;;;27.40;17.70;;;;;;;16.35;100.00;101476.88;6208732;23;20147;-73
2023/09/02 00:41:16;;;;;;;27.90;18.52;;;;;;;16.36;100.00;101478.59;6209135;23;20005;-73
2023/09/02 00:43:42;;;;;;;27.33;17.40;;;;;;;16.35;100.00;101483.16;6211119;23;20333;-73
2023/09/02 00:46:09;;;;;;;26.73;18.73;;;;;;;16.34;100.00;101480.56;6211343;23;20004;-73
2023/09/02 00:48:35;;;;;;;30.98;15.63;;;;;;;16.29;100.00;101478.28;6210888;23;20023;-73
2023/09/02 00:51:01;;;;;;;25.90;15.00;;;;;;;16.28;100.00;101473.84;6211348;23;20361;-73
2023/09/02 00:53:26;;;;;;;26.90;16.52;;;;;;;16.30;100.00;101473.72;6211549;23;20080;-73
2023/09/02 00:55:52;;;;;;;25.50;14.93;;;;;;;16.28;100.00;101475.69;6211095;23;20315;-73
2023/09/02 00:58:18;;;;;;;28.83;17.10;;;;;;;16.24;100.00;101475.13;6211038;23;20008;-73
2023/09/02 01:00:44;;;;;;;27.30;15.05;;;;;;;16.24;100.00;101475.13;6211136;23;20080;-73
2023/09/02 01:03:10;;;;;;;27.27;16.95;;;;;;;16.24;100.00;101469.69;6209696;23;20096;-73
2023/09/02 01:05:35;;;;;;;26.70;16.27;;;;;;;16.24;100.00;101475.13;6211351;23;20430;-73
2023/09/02 01:08:03;;;;;;;26.83;16.23;;;;;;;16.23;100.00;101466.09;6211164;23;20011;-73
2023/09/02 01:10:32;;;;;;;26.58;16.20;;;;;;;16.22;100.00;101477.09;6211001;23;20012;-73
2023/09/02 01:12:57;;;;;;;27.67;16.97;;;;;;;16.20;100.00;101470.97;6210727;23;20011;-73
2023/09/02 01:15:23;;;;;;;29.10;16.80;;;;;;;16.19;100.00;101482.78;6211250;23;20008;-73
2023/09/02 01:17:48;;;;;;;26.83;17.13;;;;;;;16.18;100.00;101481.06;6211182;23;20079;-73
2023/09/02 01:20:17;;;;;;;26.02;16.50;;;;;;;16.16;100.00;101477.63;6211607;23;20000;-73
2023/09/02 01:23:00;;;;;;;27.52;15.48;;;;;;;16.18;100.00;101475.63;6213158;23;20008;-73
2023/09/02 01:25:52;;;;;;;27.42;16.23;;;;;;;16.16;100.00;101483.91;6211493;23;20024;-73
2023/09/02 01:28:24;;;;;;;29.05;16.98;;;;;;;16.16;100.00;101477.63;6213509;23;20028;-73
2023/09/02 01:30:53;;;;;;;26.45;16.70;;;;;;;16.15;100.00;101479.50;6227127;22;19992;-73
2023/09/02 01:33:21;;;;;;;24.85;15.35;;;;;;;16.18;100.00;101481.06;6242450;22;19997;-73
2023/09/02 01:35:49;;;;;;;27.48;16.52;;;;;;;16.18;100.00;101487.38;6242749;22;20000;-73
2023/09/02 01:38:15;;;;;;;28.17;15.82;;;;;;;16.18;100.00;101490.06;6242128;22;20032;-74
2023/09/02 01:40:44;;;;;;;27.33;17.48;;;;;;;16.19;100.00;101485.50;6242858;22;20000;-73
2023/09/02 01:43:11;;;;;;;26.48;15.27;;;;;;;16.20;100.00;101489.94;6220370;22;20040;-70
2023/09/02 01:45:37;;;;;;;27.42;16.60;;;;;;;16.19;100.00;101494.50;6211964;23;20074;-69
2023/09/02 01:48:04;;;;;;;26.63;15.35;;;;;;;16.21;100.00;101488.97;6211956;23;20020;-69
2023/09/02 01:50:32;;;;;;;28.40;16.30;;;;;;;16.22;100.00;101490.66;6211110;23;20001;-73
2023/09/02 01:52:58;;;;;;;27.17;16.08;;;;;;;16.24;100.00;101497.66;6209286;23;20501;-73
2023/09/02 01:55:24;;;;;;;28.02;16.70;;;;;;;16.28;100.00;101497.41;6211478;23;20393;-73
2023/09/02 01:57:50;;;;;;;25.05;15.75;;;;;;;16.29;100.00;101505.41;6210949;23;20001;-73
2023/09/02 02:00:15;;;;;;;26.65;16.50;;;;;;;16.29;100.00;101501.84;6211072;23;20039;-73
2023/09/02 02:02:43;;;;;;;27.40;17.75;;;;;;;16.29;100.00;101501.84;6211314;23;20076;-73
2023/09/02 02:05:15;;;;;;;25.73;16.45;;;;;;;16.28;100.00;101503.66;6211055;23;20341;-73
2023/09/02 02:07:44;;;;;;;26.08;15.82;;;;;;;16.27;100.00;101504.69;6211364;23;20001;-73
2023/09/02 02:10:16;;;;;;;31.42;17.52;;;;;;;16.27;100.00;101499.25;6210653;23;20106;-73
2023/09/02 02:12:42;;;;;;;29.15;16.75;;;;;;;16.23;100.00;101506.78;6209412;23;20398;-73
2023/09/02 02:15:12;;;;;;;24.52;14.93;;;;;;;16.22;100.00;101504.22;6211154;23;20095;-73
2023/09/02 02:17:39;;;;;;;26.83;15.15;;;;;;;16.20;100.00;101496.22;6211267;23;20000;-73
2023/09/02 02:20:05;;;;;;;25.05;14.73;;;;;;;16.18;100.00;101502.75;6208949;23;20386;-73
2023/09/02 02:22:30;;;;;;;24.48;15.02;;;;;;;16.17;100.00;101503.78;6211752;23;20416;-73
2023/09/02 02:24:56;;;;;;;24.60;15.13;;;;;;;16.16;100.00;101499.31;6209080;23;20028;-73
2023/09/02 02:27:22;;;;;;;25.92;15.90;;;;;;;16.15;100.00;101513.88;6210873;23;20054;-73
2023/09/02 02:29:47;;;;;;;25.83;14.90;;;;;;;16.13;100.00;101510.44;6211088;23;20005;-73
2023/09/02 02:32:12;;;;;;;29.95;15.27;;;;;;;16.14;100.00;101515.75;6210356;23;20019;-73
2023/09/02 02:34:38;;;;;;;25.63;14.07;;;;;;;16.12;100.00;101519.56;6211008;23;20375;-73
2023/09/02 02:37:03;;;;;;;26.42;15.30;;;;;;;16.11;100.00;101517.88;6210904;23;20349;-73
2023/09/02 02:39:29;;;;;;;25.02;15.05;;;;;;;16.13;100.00;101521.28;6211001;23;20005;-73
2023/09/02 02:41:54;;;;;;;24.48;14.93;;;;;;;16.12;100.00;101514.13;6208402;23;20024;-72
2023/09/02 02:44:20;;;;;;;25.00;14.73;;;;;;;16.12;100.00;101520.44;6210919;23;20004;-73
2023/09/02 02:46:46;;;;;;;25.08;15.02;;;;;;;16.13;100.00;101515.88;6209699;23;20209;-73
2023/09/02 02:49:12;;;;;;;25.77;14.77;;;;;;;16.13;100.00;101519.44;6208636;23;20009;-73
2023/09/02 02:51:37;;;;;;;24.13;13.63;;;;;;;16.14;100.00;101513.03;6207951;23;20008;-73
2023/09/02 02:54:03;;;;;;;25.80;14.73;;;;;;;16.17;100.00;101522.75;6209048;23;20035;-73
2023/09/02 02:56:28;;;;;;;27.38;14.35;;;;;;;16.18;100.00;101519.03;6210632;23;20000;-73
2023/09/02 02:58:55;;;;;;;24.20;13.68;;;;;;;16.20;100.00;101522.47;6210557;23;20036;-73
2023/09/02 03:01:20;;;;;;;25.90;13.93;;;;;;;16.20;100.00;101522.47;6210966;23;20019;-70
2023/09/02 03:03:46;;;;;;;24.60;13.13;;;;;;;16.20;100.00;101523.34;6209550;23;20083;-70
2023/09/02 03:06:17;;;;;;;24.35;12.90;;;;;;;16.21;100.00;101525.06;6210997;23;20099;-70
2023/09/02 03:08:42;;;;;;;26.58;14.05;;;;;;;16.22;100.00;101520.50;6209818;23;20071;-69
2023/09/02 03:11:07;;;;;;;26.23;13.05;;;;;;;16.22;100.00;101512.34;6209659;23;20024;-71
2023/09/02 03:13:36;;;;;;;27.48;14.13;;;;;;;16.22;100.00;101507.81;6209939;23;20445;-71
2023/09/02 03:16:02;;;;;;;22.45;12.20;;;;;;;16.21;100.00;101510.66;6210338;23;20333;-71
2023/09/02 03:18:28;;;;;;;23.40;12.38;;;;;;;16.20;100.00;101517.06;6209287;23;20020;-71
2023/09/02 03:20:54;;;;;;;24.67;12.55;;;;;;;16.17;100.00;101511.91;6209276;23;20012;-73
2023/09/02 03:23:20;;;;;;;22.85;13.13;;;;;;;16.15;100.00;101516.59;6210282;23;20011;-73
2023/09/02 03:25:45;;;;;;;22.55;11.98;;;;;;;16.12;100.00;101522.28;6210619;23;20005;-73
2023/09/02 03:28:12;;;;;;;22.10;11.40;;;;;;;16.12;100.00;101516.84;6210695;23;19996;-73
2023/09/02 03:30:37;;;;;;;23.20;12.23;;;;;;;16.10;100.00;101517.00;6210060;23;20004;-72
2023/09/02 03:33:03;;;;;;;22.38;11.75;;;;;;;16.10;100.00;101522.41;6210128;23;20487;-73
2023/09/02 03:35:28;;;;;;;23.83;12.98;;;;;;;16.10;100.00;101526.97;6210475;23;20409;-73
2023/09/02 03:37:54;;;;;;;23.05;11.55;;;;;;;16.08;100.00;101529.84;6210224;23;20438;-73
2023/09/02 03:40:19;;;;;;;21.33;11.07;;;;;;;16.07;100.00;101534.38;6210490;23;20678;-73
2023/09/02 03:42:45;;;;;;;24.02;12.45;;;;;;;16.03;100.00;101535.66;6209471;23;20096;-73
2023/09/02 03:45:13;;;;;;;22.83;12.35;;;;;;;16.01;100.00;101534.91;6210259;23;20011;-73
2023/09/02 03:47:39;;;;;;;22.17;12.52;;;;;;;16.00;100.00;101541.34;6210586;23;20001;-73
2023/09/02 03:50:05;;;;;;;22.40;12.70;;;;;;;15.98;100.00;101546.00;6208166;23;20086;-73
2023/09/02 03:52:31;;;;;;;24.98;14.60;;;;;;;15.99;100.00;101553.16;6209508;23;20012;-73
2023/09/02 03:54:57;;;;;;;22.52;12.10;;;;;;;15.99;100.00;101549.56;6208287;23;20086;-73
2023/09/02 03:57:23;;;;;;;23.42;12.45;;;;;;;15.99;100.00;101550.47;6210418;23;20016;-73
2023/09/02 03:59:48;;;;;;;24.65;12.48;;;;;;;16.00;100.00;101546.75;6209708;23;20375;-73
2023/09/02 04:02:13;;;;;;;22.23;11.93;;;;;;;16.01;100.00;101545.75;6208456;23;20075;-73
2023/09/02 04:04:40;;;;;;;24.98;13.50;;;;;;;16.01;100.00;101542.19;6210131;23;20458;-73
2023/09/02 04:07:08;;;;;;;24.77;13.63;;;;;;;16.02;100.00;101541.22;6210246;23;20432;-73
2023/09/02 04:09:34;;;;;;;24.30;12.15;;;;;;;16.03;100.00;101534.78;6207770;23;20074;-73
2023/09/02 04:11:59;;;;;;;22.67;11.85;;;;;;;16.05;100.00;101540.94;6210019;23;20008;-72
2023/09/02 04:14:25;;;;;;;20.88;10.80;;;;;;;16.06;100.00;101546.22;6209396;23;20016;-73
2023/09/02 04:16:52;;;;;;;22.20;10.90;;;;;;;16.09;100.00;101542.38;6209969;23;20087;-73
2023/09/02 04:19:17;;;;;;;20.88;10.07;;;;;;;16.10;100.00;101541.38;6209976;23;20309;-73
2023/09/02 04:21:43;;;;;;;20.52;9.27;;;;;;;16.11;100.00;101542.28;6208264;23;20008;-73
2023/09/02 04:24:09;;;;;;;21.85;9.55;;;;;;;16.12;100.00;101542.13;6209997;23;20008;-72
2023/09/02 04:26:34;;;;;;;21.08;9.40;;;;;;;16.13;100.00;101543.84;6207970;23;20103;-73
2023/09/02 04:29:00;;;;;;;21.08;9.02;;;;;;;16.14;100.00;101545.56;6210117;23;20445;-73
2023/09/02 04:31:26;;;;;;;20.52;8.85;;;;;;;16.13;100.00;101548.41;6220931;23;20012;-72
2023/09/02 04:33:51;;;;;;;24.73;9.93;;;;;;;16.12;100.00;101547.56;6229236;23;20007;-72
2023/09/02 04:36:17;;;;;;;21.13;9.52;;;;;;;16.14;100.00;101547.44;6229510;23;20008;-72
2023/09/02 04:38:42;;;;;;;19.65;8.60;;;;;;;16.14;100.00;101555.56;6229255;23;20028;-72
2023/09/02 04:41:07;;;;;;;20.20;8.15;;;;;;;16.13;100.00;101557.41;6229269;23;20015;-72
2023/09/02 04:43:34;;;;;;;20.77;8.80;;;;;;;16.12;100.00;101557.53;6227600;23;20023;-72
2023/09/02 04:46:01;;;;;;;19.50;8.30;;;;;;;16.09;100.00;101553.22;6228981;23;20620;-72
2023/09/02 04:48:27;;;;;;;20.65;9.20;;;;;;;16.10;100.00;101554.09;6229811;23;20028;-72
2023/09/02 04:50:55;;;;;;;19.27;8.18;;;;;;;16.10;100.00;101556.81;6227969;23;20011;-72
2023/09/02 04:53:21;;;;;;;18.98;8.60;;;;;;;16.11;100.00;101566.69;6229996;23;20422;-72
2023/09/02 04:55:47;;;;;;;18.88;7.47;;;;;;;16.09;100.00;101572.19;6231334;23;20111;-72
2023/09/02 04:58:12;;;;;;;19.92;7.95;;;;;;;16.08;100.00;101562.38;6232040;23;20024;-72
2023/09/02 05:00:38;;;;;;;18.67;8.35;;;;;;;16.07;100.00;101561.50;6231520;23;20016;-72
2023/09/02 05:03:04;;;;;;;21.55;8.77;;;;;;;16.06;100.00;101567.94;6231253;23;20004;-72
2023/09/02 05:05:31;;;;;;;18.23;7.65;;;;;;;16.06;100.00;101569.75;6230414;23;20008;-72
2023/09/02 05:07:56;;;;;;;24.65;9.30;;;;;;;16.03;100.00;101560.06;6230563;23;20066;-72
2023/09/02 05:10:22;;;;;;;22.02;9.20;;;;;;;16.03;100.00;101570.91;6230287;23;20008;-72
2023/09/02 05:12:47;;;;;;;21.13;8.60;;;;;;;16.02;100.00;101569.16;6230111;23;20004;-72
2023/09/02 05:15:12;;;;;;;19.15;8.15;;;;;;;15.99;100.00;101580.28;6228610;23;20004;-72
2023/09/02 05:17:38;;;;;;;19.58;7.75;;;;;;;15.97;100.00;101578.69;6231945;23;19997;-72
2023/09/02 05:20:05;;;;;;;20.65;7.55;;;;;;;15.95;100.00;101580.69;6231660;23;20074;-72
2023/09/02 05:22:31;;;;;;;20.50;9.05;;;;;;;15.92;100.00;101589.91;6228884;23;20015;-72
2023/09/02 05:24:56;;;;;;;20.70;8.82;;;;;;;15.92;100.00;101583.66;6228517;23;20488;-72
2023/09/02 05:27:22;;;;;;;19.45;8.25;;;;;;;15.91;100.00;101593.59;6230320;23;20046;-72
2023/09/02 05:29:48;;;;;;;18.55;8.10;;;;;;;15.89;100.00;101601.03;6227947;23;20005;-72
2023/09/02 05:32:15;;;;;;;20.80;7.85;;;;;;;15.88;100.00;101608.28;6228482;23;20009;-72
2023/09/02 05:34:40;;;;;;;17.88;7.18;;;;;;;15.87;100.00;101602.97;6230010;23;20173;-72
2023/09/02 05:37:06;;;;;;;18.10;7.35;;;;;;;15.85;100.00;101605.81;6231373;23;20092;-72
2023/09/02 05:39:31;;;;;;;21.10;8.27;;;;;;;15.87;100.00;101608.41;6229470;23;20004;-72
2023/09/02 05:41:56;;;;;;;19.92;8.32;;;;;;;15.88;100.00;101607.44;6213727;23;20012;-73
2023/09/02 05:44:22;;;;;;;19.48;8.13;;;;;;;15.89;100.00;101599.16;6210357;23;20437;-73
2023/09/02 05:46:47;;;;;;;25.65;8.68;;;;;;;15.92;100.00;101611.59;6210623;23;20031;-73
2023/09/02 05:49:13;;;;;;;19.75;8.55;;;;;;;15.94;100.00;101609.63;6209696;23;20086;-73
2023/09/02 05:51:39;;;;;;;20.55;7.97;;;;;;;15.97;100.00;101608.50;6211444;23;20092;-73
2023/09/02 05:54:04;;;;;;;19.60;8.45;;;;;;;15.98;100.00;101611.09;6209510;23;20009;-73
2023/09/02 05:56:31;;;;;;;21.08;8.35;;;;;;;16.00;100.00;101613.66;6208544;23;20004;-73
2023/09/02 05:58:57;;;;;;;18.38;7.18;;;;;;;15.99;100.00;101607.41;6209210;23;20020;-73
2023/09/02 06:01:22;;;;;;;23.05;7.70;;;;;;;16.00;100.00;101608.25;6209124;23;20388;-73
2023/09/02 06:03:47;;;;;;;18.63;7.82;;;;;;;16.01;100.00;101615.41;6210632;23;20006;-73
2023/09/02 06:06:13;;;;;;;16.20;6.80;;;;;;;16.01;100.00;101609.97;6208608;23;20087;-73
2023/09/02 06:08:39;;;;;;;19.35;7.85;;;;;;;16.00;100.00;101616.38;6210789;23;20001;-73
2023/09/02 06:11:08;;;;;;;17.67;7.03;;;;;;;16.01;100.00;101618.97;6211512;23;20964;-73
2023/09/02 06:13:34;;;;;;;19.90;8.43;;;;;;;16.03;100.00;101627.84;6211033;23;20499;-73
2023/09/02 06:16:01;;;;;;;19.73;8.45;;;;;;;16.06;100.00;101633.00;6210643;23;20005;-73
2023/09/02 06:18:27;;;;;;;27.13;8.38;;;;;;;16.07;100.00;101632.00;6210570;23;20009;-73
2023/09/02 06:20:52;;;;;;;21.10;8.45;;;;;;;16.10;100.00;101632.75;6210779;23;20462;-73
2023/09/02 06:23:17;;;;;;;18.17;7.22;;;;;;;16.13;100.00;101635.19;6210846;23;20012;-73
2023/09/02 06:25:43;;;;;;;19.23;8.02;;;;;;;16.16;100.00;101643.06;6211031;23;20075;-73
2023/09/02 06:28:08;;;;;;;21.20;9.00;;;;;;;16.19;100.00;101648.22;6210832;23;19996;-73
2023/09/02 06:30:36;;;;;;;19.40;8.35;;;;;;;16.21;100.00;101652.53;6211273;23;20008;-73
2023/09/02 06:33:02;;;;;;;20.23;9.63;;;;;;;16.23;100.00;101653.25;6209267;23;20323;-73
2023/09/02 06:35:30;;;;;;;22.85;9.25;;;;;;;16.27;100.00;101662.00;6210420;23;20031;-73
2023/09/02 06:37:55;;;;;;;20.48;9.05;;;;;;;16.29;100.00;101667.31;6210164;23;20407;-74
2023/09/02 06:40:20;;;;;;;22.00;9.75;;;;;;;16.32;100.00;101672.47;6210640;23;20012;-73
2023/09/02 06:42:46;;;;;;;22.98;10.20;;;;;;;16.33;100.00;101666.91;6210301;23;20017;-73
2023/09/02 06:45:11;;;;;;;20.27;9.27;;;;;;;16.35;100.00;101683.91;6207933;23;20015;-73
2023/09/02 06:47:36;;;;;;;20.70;10.07;;;;;;;16.36;100.00;101673.94;6208587;23;20379;-73
2023/09/02 06:50:01;;;;;;;23.15;11.07;;;;;;;16.40;100.00;101681.69;6210201;23;20062;-73
2023/09/02 06:52:27;;;;;;;21.42;10.93;;;;;;;16.44;100.00;101693.13;6221115;23;20405;-72
2023/09/02 06:54:52;;;;;;;24.92;10.85;;;;;;;16.47;100.00;101692.00;6224881;23;20338;-72
2023/09/02 06:57:17;;;;;;;23.13;10.93;;;;;;;16.50;100.00;101703.47;6224105;23;20020;-72
2023/09/02 06:59:43;;;;;;;23.20;12.57;;;;;;;16.51;100.00;101705.16;6224336;23;20008;-72
2023/09/02 07:02:08;;;;;;;25.45;12.10;;;;;;;16.54;100.00;101712.19;6212295;23;20330;-71
2023/09/02 07:04:33;;;;;;;26.90;11.82;;;;;;;16.56;100.00;101719.22;6210020;23;20004;-71
2023/09/02 07:06:59;;;;;;;22.88;11.63;;;;;;;16.59;100.00;101724.38;6210449;23;20007;-71
2023/09/02 07:09:24;;;;;;;23.90;11.70;;;;;;;16.62;100.00;101723.28;6210163;23;20015;-72
2023/09/02 07:11:49;;;;;;;22.60;12.95;;;;;;;16.65;100.00;101730.28;6209960;23;20004;-73
2023/09/02 07:14:15;;;;;;;28.00;14.45;;;;;;;16.66;100.00;101732.88;6210241;23;20311;-73
2023/09/02 07:16:40;;;;;;;24.75;14.32;;;;;;;16.70;100.00;101741.59;6210137;23;20055;-72
2023/09/02 07:19:05;;;;;;;25.15;12.55;;;;;;;16.72;100.00;101737.78;6209394;23;20020;-73
2023/09/02 07:21:31;;;;;;;26.80;13.77;;;;;;;16.75;100.00;101742.94;6210768;23;20004;-73
2023/09/02 07:23:56;;;;;;;24.48;13.63;;;;;;;16.78;100.00;101744.53;6209890;23;20454;-73
2023/09/02 07:26:23;;;;;;;25.00;12.82;;;;;;;16.82;100.00;101748.69;6208301;23;20023;-73
2023/09/02 07:28:49;;;;;;;23.83;13.18;;;;;;;16.86;100.00;101752.03;6210172;23;20000;-73
2023/09/02 07:31:14;;;;;;;28.20;13.10;;;;;;;16.89;100.00;101752.63;6207641;23;20070;-73
2023/09/02 07:33:41;;;;;;;25.15;12.80;;;;;;;16.91;100.00;101749.78;6209283;23;20073;-72
2023/09/02 07:36:10;;;;;;;26.30;14.82;;;;;;;16.95;100.00;101751.25;6208560;23;20008;-73
2023/09/02 07:38:37;;;;;;;23.70;13.35;;;;;;;16.98;100.00;101747.41;6209412;23;20339;-73
2023/09/02 07:41:02;;;;;;;26.33;13.90;;;;;;;17.00;100.00;101746.31;6209790;23;20375;-74
2023/09/02 07:43:28;;;;;;;23.45;13.88;;;;;;;17.01;100.00;101753.44;6210345;23;20013;-73
2023/09/02 07:45:54;;;;;;;28.75;14.50;;;;;;;17.04;100.00;101758.63;6208227;23;20023;-73
2023/09/02 07:48:19;;;;;;;23.30;12.55;;;;;;;17.05;100.00;101760.31;6209913;23;20004;-73
2023/09/02 07:50:44;;;;;;;24.98;13.50;;;;;;;17.10;100.00;101760.81;6209282;23;20011;-73
2023/09/02 07:53:10;;;;;;;22.98;13.63;;;;;;;17.12;100.00;101769.66;6208176;23;20158;-73
2023/09/02 07:55:36;;;;;;;24.75;14.48;;;;;;;17.16;100.00;101769.41;6210763;23;20330;-73
2023/09/02 07:58:02;;;;;;;24.52;14.18;;;;;;;17.18;100.00;101768.28;6210480;23;20473;-74
2023/09/02 08:00:28;;;;;;;23.48;14.27;;;;;;;17.22;100.00;101774.28;6209625;23;20039;-73
2023/09/02 08:02:54;;;;;;;23.80;14.88;;;;;;;17.25;100.00;101774.91;6209874;23;20071;-73
2023/09/02 08:05:19;;;;;;;24.83;14.75;;;;;;;17.28;100.00;101773.78;6208471;23;20004;-73
2023/09/02 08:07:45;;;;;;;25.67;17.15;;;;;;;17.30;100.00;101774.50;6207558;23;20422;-73
2023/09/02 08:10:11;;;;;;;27.88;17.88;;;;;;;17.33;100.00;101779.66;6210457;23;20123;-73
2023/09/02 08:12:36;;;;;;;28.17;16.55;;;;;;;17.36;100.00;101779.38;6210403;23;20008;-73
2023/09/02 08:15:02;;;;;;;28.33;17.45;;;;;;;17.39;100.00;101791.84;6210359;23;20387;-73
2023/09/02 08:17:27;;;;;;;25.55;17.00;;;;;;;17.40;100.00;101788.16;6213859;23;20295;-72
2023/09/02 08:19:52;;;;;;;26.38;17.63;;;;;;;17.42;100.00;101791.59;6216983;23;20004;-71
2023/09/02 08:22:18;;;;;;;27.90;17.27;;;;;;;17.42;100.00;101784.31;6215696;23;20012;-71
2023/09/02 08:24:43;;;;;;;28.70;17.90;;;;;;;17.43;100.00;101791.44;6214116;23;20008;-72
2023/09/02 08:27:09;;;;;;;29.88;18.25;;;;;;;17.46;100.00;101793.03;6216593;23;20362;-72
2023/09/02 08:29:34;;;;;;;27.45;17.92;;;;;;;17.51;100.00;101789.91;6216940;23;20027;-71
2023/09/02 08:32:00;;;;;;;29.05;19.88;;;;;;;17.55;100.00;101796.81;6209781;23;20009;-72
2023/09/02 08:34:26;;;;;;;31.55;20.13;;;;;;;17.55;100.00;101796.81;6209317;23;20000;-73
2023/09/02 08:36:54;;;;;;;29.75;21.05;;;;;;;17.56;100.00;101803.97;6209386;23;20004;-72
2023/09/02 08:39:19;;;;;;;32.65;22.98;;;;;;;17.63;100.00;101805.16;6209622;23;20030;-72
2023/09/02 08:41:46;;;;;;;37.38;29.13;;;;;;;17.64;100.00;101806.84;6205633;23;20032;-73
2023/09/02 08:44:15;;;;;;;37.28;28.40;;;;;;;17.67;100.00;101811.16;6210389;23;20378;-73
2023/09/02 08:46:44;;;;;;;39.60;31.42;;;;;;;17.67;100.00;101814.75;6210151;23;20445;-73
2023/09/02 08:49:10;;;;;;;39.08;32.38;;;;;;;17.72;100.00;101820.66;6209852;23;20007;-73
2023/09/02 08:51:38;;;;;;;33.38;27.23;;;;;;;17.72;100.00;101820.66;6208943;23;20024;-73
2023/09/02 08:54:03;;;;;;;41.95;25.80;;;;;;;17.75;100.00;101812.22;6207565;23;20004;-73
2023/09/02 08:56:29;;;;;;;29.98;22.80;;;;;;;17.78;100.00;101811.94;6209173;23;20070;-73
2023/09/02 08:58:55;;;;;;;33.17;24.45;;;;;;;17.77;100.00;101812.06;6207348;23;20087;-73
2023/09/02 09:01:23;;;;;;;33.45;25.30;;;;;;;17.81;100.00;101819.81;6207813;23;20008;-73
2023/09/02 09:03:52;;;;;;;37.25;28.73;;;;;;;17.85;100.00;101822.25;6206009;23;20070;-73
2023/09/02 09:06:21;;;;;;;36.60;28.50;;;;;;;17.85;100.00;101815.00;6208918;23;20063;-73
2023/09/02 09:08:47;;;;;;;35.72;28.85;;;;;;;17.89;100.00;101811.00;6209594;23;20358;-73
2023/09/02 09:11:15;;;;;;;46.78;41.75;;;;;;;17.91;100.00;101819.06;6209002;23;20005;-73
2023/09/02 09:13:45;;;;;;;49.80;44.60;;;;;;;17.92;100.00;101824.34;6207142;23;20151;-73
2023/09/02 09:16:15;;;;;;;52.28;45.50;;;;;;;17.97;100.00;101829.38;6209102;23;20000;-73
2023/09/02 09:18:41;;;;;;;47.80;42.70;;;;;;;18.02;100.00;101827.09;6207909;23;20494;-73
2023/09/02 09:21:07;;;;;;;42.60;36.95;;;;;;;18.05;100.00;101826.81;6208904;23;20076;-73
2023/09/02 09:23:35;;;;;;;37.72;32.53;;;;;;;18.09;100.00;101828.25;6209468;23;20410;-73
2023/09/02 09:26:02;;;;;;;35.47;28.85;;;;;;;18.09;100.00;101824.69;6208316;23;20005;-73
2023/09/02 09:28:48;;;;;;;32.80;26.83;;;;;;;18.13;100.00;101832.44;6207504;23;20367;-73
2023/09/02 09:31:17;;;;;;;35.35;27.48;;;;;;;18.16;100.00;101832.16;6209394;23;20012;-73
2023/09/02 09:33:49;;;;;;;34.05;27.92;;;;;;;18.23;100.00;101842.47;6206285;23;20309;-73
2023/09/02 09:36:17;;;;;;;37.45;29.95;;;;;;;18.26;100.00;101850.38;6206946;23;20004;-73
2023/09/02 09:38:42;;;;;;;35.80;29.27;;;;;;;18.30;100.00;101857.25;6206137;23;20005;-73
2023/09/02 09:41:08;;;;;;;35.50;27.67;;;;;;;18.33;100.00;101857.84;6208982;23;20162;-73
2023/09/02 09:43:34;;;;;;;35.92;27.80;;;;;;;18.36;100.00;101862.16;6209741;23;20075;-73
2023/09/02 09:45:59;;;;;;;34.67;27.45;;;;;;;18.40;100.00;101863.59;6211028;23;20382;-74
2023/09/02 09:48:25;;;;;;;35.75;27.65;;;;;;;18.44;100.00;101864.19;6209824;23;19997;-73
2023/09/02 09:50:51;;;;;;;36.30;30.17;;;;;;;18.50;100.00;101864.47;6211645;23;20008;-73
2023/09/02 09:53:17;;;;;;;39.35;32.67;;;;;;;18.55;100.00;101866.81;6219338;23;20130;-72
2023/09/02 09:55:42;;;;;;;36.83;30.30;;;;;;;18.60;100.00;101866.38;6216182;23;20414;-72
2023/09/02 09:58:08;;;;;;;39.97;30.95;;;;;;;18.61;100.00;101862.63;6216322;23;20283;-73
2023/09/02 10:00:33;;;;;;;37.30;32.03;;;;;;;18.64;100.00;101862.38;6217678;23;20175;-73
2023/09/02 10:03:00;;;;;;;36.33;29.38;;;;;;;18.66;100.00;101866.66;6209082;23;20004;-73
2023/09/02 10:05:30;;;;;;;36.67;31.08;;;;;;;18.65;100.00;101861.34;6210646;23;20009;-73
2023/09/02 10:08:00;;;;;;;37.20;30.60;;;;;;;18.67;100.00;101873.84;6209416;23;19996;-73
2023/09/02 10:10:28;;;;;;;36.53;30.55;;;;;;;18.63;100.00;101866.94;6211134;23;20004;-73
2023/09/02 10:12:55;;;;;;;36.85;28.63;;;;;;;18.67;100.00;101870.25;6210936;23;20368;-73
2023/09/02 10:15:24;;;;;;;35.70;29.77;;;;;;;18.71;100.00;101877.13;6209713;23;20099;-73
2023/09/02 10:17:52;;;;;;;36.60;29.25;;;;;;;18.73;100.00;101883.31;6211475;23;20001;-73
2023/09/02 10:20:18;;;;;;;35.05;27.08;;;;;;;18.78;100.00;101893.78;6211464;23;20083;-73
2023/09/02 10:22:46;;;;;;;37.58;30.88;;;;;;;18.84;100.00;101893.19;6209658;23;20044;-73
2023/09/02 10:25:24;;;;;;;37.60;30.15;;;;;;;18.93;100.00;101888.81;6211234;23;20299;-72
2023/09/02 10:28:13;;;;;;;37.70;29.08;;;;;;;18.97;100.00;101887.53;6209225;23;20103;-73
2023/09/02 10:30:43;;;;;;;;;;;;;;;19.05;100.00;101887.69;6199159;23;20035;-73
2023/09/02 10:33:17;;;;;;;38.10;29.83;;;;;;;19.10;100.00;101893.53;6211547;23;19911;-73
2023/09/02 10:35:46;;;;;;;33.97;27.00;;;;;;;19.14;100.00;101894.97;6211354;23;20007;-73
2023/09/02 10:38:17;;;;;;;33.70;25.17;;;;;;;19.13;100.00;101895.13;6209180;23;20100;-73
2023/09/02 10:40:48;;;;;;;33.83;25.48;;;;;;;19.12;100.00;101896.13;6211380;23;20027;-73
2023/09/02 10:43:14;;;;;;;35.85;28.35;;;;;;;19.09;100.00;101905.44;6210958;23;20478;-73
2023/09/02 10:45:40;;;;;;;40.83;30.27;;;;;;;19.06;100.00;101908.44;6210982;23;20000;-73
2023/09/02 10:48:06;;;;;;;40.80;31.90;;;;;;;19.03;100.00;101897.84;6210927;23;20020;-73
2023/09/02 10:50:31;;;;;;;43.67;33.05;;;;;;;19.04;100.00;101915.91;6209330;23;20342;-73
2023/09/02 10:52:57;;;;;;;39.88;32.40;;;;;;;19.01;100.00;101908.03;6211143;23;20499;-73
2023/09/02 10:55:22;;;;;;;42.80;32.38;;;;;;;19.02;100.00;101912.50;6211015;23;20498;-73
2023/09/02 10:57:54;;;;;;;42.58;33.92;;;;;;;19.04;100.00;101902.28;6209279;23;20292;-73
2023/09/02 11:00:28;;;;;;;42.20;34.85;;;;;;;19.07;100.00;101903.88;6209265;23;20507;-73
2023/09/02 11:02:55;;;;;;;46.25;33.17;;;;;;;19.09;100.00;101905.44;6211112;23;20004;-73